Tessenderlo, Belgium
Current Conditions -  °F | °C
As of 3:25 AM on Friday 21 Nov 2014 (Local Time) from EBDT Reporting Station
Clear Clear  
Wind Chill:   Ceiling: Unl
Heat Index:   Visibility: 1.3mi
Dew Point:   Wind: 3mph
Humidity: 100%   Direction: 60°ENE
Pressure: 30.24"   Gusts: NA
Location:  51.07°N, 5.09°E
Report Text: EBDT 210225Z AUTO 06003KT 2100 NCD 02/02 Q1024 YLO
Loading
Personal Weather Stations






























Interactive Weather Map New forecast layout! Learn more

10-Day Weather Forecast

Advertisements
Track Severe Weather on mobile